createdAt,value
2015-07-06T14:39:32.171Z,96076
2015-07-06T14:39:50.280Z,96070
2015-07-06T14:40:08.874Z,96072
2015-07-06T14:40:27.265Z,96072
2015-07-06T14:40:45.673Z,96072
2015-07-06T14:41:04.064Z,96063
2015-07-06T14:41:22.564Z,96066
2015-07-06T14:41:41.050Z,96067
2015-07-06T14:41:59.441Z,96053
2015-07-06T14:42:17.894Z,96073
2015-07-06T14:42:36.316Z,96072
2015-07-06T14:42:54.708Z,96069
2015-07-06T14:43:13.583Z,96067
2015-07-06T14:43:31.990Z,96064
2015-07-06T14:43:50.602Z,96070
2015-07-06T14:44:09.196Z,96067
2015-07-06T14:44:27.586Z,96058
2015-07-06T14:44:45.993Z,96053
2015-07-06T14:45:04.415Z,96061
2015-07-06T14:45:22.837Z,96055
2015-07-06T14:45:41.478Z,96066
2015-07-06T14:46:00.074Z,96061
2015-07-06T14:46:18.621Z,96050
2015-07-06T14:46:37.105Z,96053
2015-07-06T14:46:55.605Z,96061
2015-07-06T14:47:13.999Z,96052
2015-07-06T14:47:32.452Z,96063
2015-07-06T14:47:50.920Z,96052
2015-07-06T14:48:09.594Z,96055
2015-07-06T14:48:28.376Z,96055
2015-07-06T14:48:46.751Z,96056
2015-07-06T14:49:05.266Z,96056
2015-07-06T14:49:23.956Z,96062
2015-07-06T14:49:42.315Z,96056
2015-07-06T14:50:00.799Z,96050
2015-07-06T14:50:19.411Z,96056
2015-07-06T14:50:37.817Z,96049
2015-07-06T14:50:56.239Z,96061
2015-07-06T14:51:14.630Z,96049
2015-07-06T14:51:33.147Z,96052
2015-07-06T14:51:51.600Z,96055
2015-07-06T14:52:10.069Z,96061
2015-07-06T14:52:28.477Z,96052
2015-07-06T14:52:46.977Z,96066
2015-07-06T14:53:05.571Z,96047
2015-07-06T14:53:24.024Z,96052
2015-07-06T14:53:42.574Z,96058
2015-07-06T14:54:01.121Z,96052
2015-07-06T14:54:19.777Z,96052
2015-07-06T14:54:38.466Z,96057
2015-07-06T14:54:56.856Z,96051
2015-07-06T14:55:15.434Z,96048
2015-07-06T14:55:33.997Z,96045
2015-07-06T14:55:52.437Z,96042
2015-07-06T14:56:10.906Z,96054
2015-07-06T14:56:29.297Z,96057
2015-07-06T14:56:47.829Z,96048
2015-07-06T14:57:06.235Z,96040
2015-07-06T14:57:24.767Z,96045
2015-07-06T14:57:43.157Z,96051
2015-07-06T14:58:01.738Z,96048
2015-07-06T14:58:20.316Z,96051
2015-07-06T14:58:39.098Z,96051
2015-07-06T14:58:57.631Z,96040
2015-07-06T14:59:16.131Z,96051
2015-07-06T14:59:34.568Z,96042
2015-07-06T14:59:53.100Z,96045
2015-07-06T15:00:11.633Z,96054
2015-07-06T15:00:30.117Z,96039
2015-07-06T15:00:48.555Z,96043
2015-07-06T15:01:07.104Z,96048
2015-07-06T15:01:25.619Z,96048
2015-07-06T15:01:44.072Z,96045
2015-07-06T15:02:02.651Z,96042
2015-07-06T15:02:21.231Z,96039
2015-07-06T15:02:39.949Z,96041
2015-07-06T15:02:58.528Z,96051
2015-07-06T15:03:17.076Z,96039
2015-07-06T15:03:35.608Z,96041
2015-07-06T15:03:54.076Z,96041
2015-07-06T15:04:12.766Z,96035
2015-07-06T15:04:31.266Z,96038
2015-07-06T15:04:49.907Z,96038
2015-07-06T15:05:08.313Z,96038
2015-07-06T15:05:26.785Z,96041
2015-07-06T15:05:45.222Z,96041
2015-07-06T15:06:04.003Z,96029
2015-07-06T15:06:22.410Z,96047
2015-07-06T15:06:40.989Z,96038
2015-07-06T15:06:59.364Z,96041
2015-07-06T15:07:18.020Z,96046
2015-07-06T15:07:36.414Z,96040
2015-07-06T15:07:54.820Z,96037
2015-07-06T15:08:13.367Z,96040
2015-07-06T15:08:31.929Z,96037
2015-07-06T15:08:50.384Z,96031
2015-07-06T15:09:08.791Z,96040
2015-07-06T15:09:27.431Z,96040
2015-07-06T15:09:45.870Z,96034
2015-07-06T15:10:04.292Z,96037
2015-07-06T15:10:22.807Z,96031
2015-07-06T15:10:41.323Z,96041
2015-07-06T15:11:00.106Z,96033
2015-07-06T15:11:18.809Z,96034
2015-07-06T15:11:37.262Z,96042
2015-07-06T15:11:55.686Z,96031
2015-07-06T15:12:14.171Z,96036
2015-07-06T15:12:32.889Z,96030
2015-07-06T15:12:51.517Z,96033
2015-07-06T15:13:10.127Z,96033
2015-07-06T15:13:28.595Z,96033
2015-07-06T15:13:47.220Z,96034
2015-07-06T15:14:05.879Z,96031
2015-07-06T15:14:24.535Z,96031
2015-07-06T15:14:42.957Z,96028
2015-07-06T15:15:01.379Z,96027
2015-07-06T15:15:20.005Z,96031
2015-07-06T15:15:38.567Z,96025
2015-07-06T15:15:57.161Z,96030
2015-07-06T15:16:15.570Z,96030
2015-07-06T15:16:34.180Z,96030
2015-07-06T15:16:52.586Z,96031
2015-07-06T15:17:11.289Z,96028
2015-07-06T15:17:29.807Z,96040
2015-07-06T15:17:48.182Z,96031
2015-07-06T15:18:06.728Z,96034
2015-07-06T15:18:25.043Z,96031
2015-07-06T15:18:43.496Z,96031
2015-07-06T15:19:01.949Z,96025
2015-07-06T15:19:20.465Z,96025
2015-07-06T15:19:38.857Z,96031
2015-07-06T15:19:57.232Z,96037
2015-07-06T15:20:15.607Z,96040
2015-07-06T15:20:33.985Z,96037
2015-07-06T15:20:52.376Z,96028
2015-07-06T15:21:13.798Z,96028
2015-07-06T15:21:32.174Z,96020
2015-07-06T15:21:50.565Z,96026
2015-07-06T15:22:08.955Z,96029
2015-07-06T15:22:27.346Z,96026
2015-07-06T15:22:45.770Z,96026
2015-07-06T15:23:04.145Z,96029
2015-07-06T15:23:22.723Z,96029
2015-07-06T15:23:41.178Z,96031
2015-07-06T15:23:59.537Z,96031
2015-07-06T15:24:17.959Z,96023
2015-07-06T15:24:36.365Z,96031
2015-07-06T15:24:54.742Z,96026
2015-07-06T15:25:13.149Z,96031
2015-07-06T15:25:31.524Z,96028
2015-07-06T15:25:49.916Z,96020
2015-07-06T15:26:08.307Z,96025
2015-07-06T15:26:26.682Z,96025
2015-07-06T15:26:45.073Z,96025
2015-07-06T15:27:03.481Z,96026
2015-07-06T15:27:21.871Z,96026
2015-07-06T15:27:39.621Z,96026
2015-07-06T15:27:58.030Z,96023
2015-07-06T15:28:16.514Z,96021
2015-07-06T15:28:34.936Z,96015
2015-07-06T15:28:53.358Z,96017
2015-07-06T15:29:11.750Z,96017
2015-07-06T15:29:30.172Z,96026
2015-07-06T15:29:48.547Z,96012
2015-07-06T15:30:06.957Z,96014
2015-07-06T15:30:25.363Z,96017
2015-07-06T15:30:43.738Z,96023
2015-07-06T15:31:02.113Z,96014
2015-07-06T15:31:20.504Z,96014
2015-07-06T15:31:38.879Z,96020
2015-07-06T15:31:57.270Z,96023
2015-07-06T15:32:15.647Z,96022
2015-07-06T15:32:33.381Z,96026
2015-07-06T15:32:51.756Z,96028
2015-07-06T15:33:10.131Z,96026
2015-07-06T15:33:28.508Z,96026
2015-07-06T15:33:46.930Z,96020
2015-07-06T15:34:05.305Z,96017
2015-07-06T15:34:23.726Z,96014
2015-07-06T15:34:42.164Z,96029
2015-07-06T15:35:00.758Z,96009
2015-07-06T15:35:19.258Z,96023
2015-07-06T15:35:37.711Z,96024
2015-07-06T15:35:56.226Z,96021
2015-07-06T15:36:14.758Z,96021
2015-07-06T15:36:33.294Z,96024
2015-07-06T15:36:51.700Z,96024
2015-07-06T15:37:10.138Z,96012
2015-07-06T15:37:28.622Z,96018
2015-07-06T15:37:47.388Z,96018
2015-07-06T15:38:05.950Z,96018
2015-07-06T15:38:24.372Z,96013
2015-07-06T15:38:42.993Z,96013
2015-07-06T15:39:01.572Z,96022
2015-07-06T15:39:20.025Z,96010
2015-07-06T15:39:38.587Z,96019
2015-07-06T15:39:57.090Z,96016
2015-07-06T15:40:15.558Z,96010
2015-07-06T15:40:33.933Z,96014
2015-07-06T15:40:52.328Z,96020
2015-07-06T15:41:10.750Z,96009
2015-07-06T15:41:29.125Z,96014
2015-07-06T15:41:47.578Z,96011
2015-07-06T15:42:05.956Z,96011
2015-07-06T15:42:24.534Z,96011
2015-07-06T15:42:43.253Z,96011
2015-07-06T15:43:01.788Z,96016
2015-07-06T15:43:20.163Z,96010
2015-07-06T15:43:38.554Z,96019
2015-07-06T15:43:56.944Z,96013
2015-07-06T15:44:15.330Z,96022
2015-07-06T15:44:33.737Z,96018
2015-07-06T15:44:52.268Z,96018
2015-07-06T15:45:10.652Z,96007
2015-07-06T15:45:29.121Z,96016
2015-07-06T15:45:47.605Z,96014
2015-07-06T15:46:06.472Z,96008
2015-07-06T15:46:24.644Z,96016
2015-07-06T15:46:43.316Z,96010
2015-07-06T15:47:01.707Z,96013
2015-07-06T15:47:20.185Z,96010
2015-07-06T15:47:38.606Z,96005
2015-07-06T15:47:57.060Z,96013
2015-07-06T15:48:15.731Z,96016
2015-07-06T15:48:34.427Z,96016
2015-07-06T15:48:52.833Z,96013
2015-07-06T15:49:11.224Z,96019
2015-07-06T15:49:29.697Z,96001
2015-07-06T15:49:48.134Z,96007
2015-07-06T15:50:06.618Z,96010
2015-07-06T15:50:25.228Z,96010
2015-07-06T15:50:43.841Z,96010
2015-07-06T15:51:02.326Z,96015
2015-07-06T15:51:20.779Z,96001
2015-07-06T15:51:39.174Z,96007
2015-07-06T15:51:57.612Z,96004
2015-07-06T15:52:16.096Z,96012
2015-07-06T15:52:34.659Z,96012
2015-07-06T15:52:53.147Z,96001
2015-07-06T15:53:11.694Z,96001
2015-07-06T15:53:29.678Z,95998
2015-07-06T15:53:48.089Z,96010
2015-07-06T15:54:06.604Z,96004
2015-07-06T15:54:25.182Z,96007
2015-07-06T15:54:43.557Z,96001
2015-07-06T15:55:02.200Z,96001
2015-07-06T15:55:20.778Z,96004
2015-07-06T15:55:39.325Z,96006
2015-07-06T15:55:57.750Z,95998
2015-07-06T15:56:16.219Z,96003
2015-07-06T15:56:34.656Z,96004
2015-07-06T15:56:53.344Z,95995
2015-07-06T15:57:11.722Z,95998
2015-07-06T15:57:30.190Z,96006
2015-07-06T15:57:48.597Z,95998
2015-07-06T15:58:07.146Z,95998
2015-07-06T15:58:25.584Z,96001
2015-07-06T15:58:44.084Z,95998
2015-07-06T15:59:02.881Z,96002
2015-07-06T15:59:21.368Z,96002
2015-07-06T15:59:40.024Z,95999
2015-07-06T15:59:58.446Z,95999
2015-07-06T16:00:16.839Z,95990
2015-07-06T16:00:35.245Z,96002
2015-07-06T16:00:53.636Z,95999
2015-07-06T16:01:12.026Z,96000
2015-07-06T16:01:30.419Z,95988
2015-07-06T16:01:48.825Z,95997
2015-07-06T16:02:07.247Z,96006
2015-07-06T16:02:25.672Z,96000
2015-07-06T16:02:44.063Z,96000
2015-07-06T16:03:02.422Z,95994
2015-07-06T16:03:20.813Z,95991
2015-07-06T16:03:39.205Z,95997
2015-07-06T16:03:57.612Z,96003
2015-07-06T16:04:16.002Z,95994
2015-07-06T16:04:34.379Z,96000
2015-07-06T16:04:52.785Z,95994
2015-07-06T16:05:11.176Z,95999
2015-07-06T16:05:29.567Z,95997
2015-07-06T16:05:47.959Z,96000
2015-07-06T16:06:06.366Z,95991
2015-07-06T16:06:24.756Z,95997
2015-07-06T16:06:43.164Z,95991
2015-07-06T16:07:01.539Z,95997
2015-07-06T16:07:19.930Z,95986
2015-07-06T16:07:38.305Z,95994
2015-07-06T16:07:56.698Z,96000
2015-07-06T16:08:15.073Z,95989
2015-07-06T16:08:33.479Z,95997
2015-07-06T16:08:51.873Z,95991
2015-07-06T16:09:10.263Z,96000
2015-07-06T16:09:28.654Z,95992
2015-07-06T16:09:47.091Z,95992
2015-07-06T16:10:05.467Z,95991
2015-07-06T16:10:23.874Z,95991
2015-07-06T16:10:42.327Z,96000
2015-07-06T16:11:00.705Z,95997
2015-07-06T16:11:19.080Z,95988
2015-07-06T16:11:37.470Z,95988
2015-07-06T16:11:55.861Z,95988
2015-07-06T16:12:14.488Z,95991
2015-07-06T16:12:32.972Z,95985
2015-07-06T16:12:51.347Z,95988
2015-07-06T16:13:09.787Z,95997
2015-07-06T16:13:28.334Z,95985
2015-07-06T16:13:46.818Z,95991
2015-07-06T16:14:05.287Z,95994
2015-07-06T16:14:24.273Z,95982
2015-07-06T16:14:42.679Z,95988
2015-07-06T16:15:01.054Z,95988
2015-07-06T16:15:19.525Z,95990
2015-07-06T16:15:37.885Z,95994
2015-07-06T16:15:56.306Z,95988
2015-07-06T16:16:15.150Z,95982
2015-07-06T16:16:33.762Z,95991
2015-07-06T16:16:52.277Z,95988
2015-07-06T16:17:10.871Z,95994
2015-07-06T16:17:29.467Z,95988
2015-07-06T16:17:48.029Z,95988
2015-07-06T16:18:06.420Z,95988
2015-07-06T16:18:25.281Z,95988
2015-07-06T16:18:43.703Z,95985
2015-07-06T16:19:02.078Z,95987
2015-07-06T16:19:20.687Z,95984
2015-07-06T16:19:39.096Z,95981
2015-07-06T16:19:57.611Z,95989
2015-07-06T16:20:16.049Z,95983
2015-07-06T16:20:34.957Z,95980
2015-07-06T16:20:53.363Z,95983
2015-07-06T16:21:12.129Z,95986
2015-07-06T16:21:30.520Z,95983
2015-07-06T16:21:49.007Z,95980
2015-07-06T16:22:07.569Z,95994
2015-07-06T16:22:26.069Z,95983
2015-07-06T16:22:44.538Z,95982
2015-07-06T16:23:03.087Z,95985
2015-07-06T16:23:21.587Z,95985
2015-07-06T16:23:40.009Z,95982
2015-07-06T16:23:58.385Z,95983
2015-07-06T16:24:16.791Z,95980
2015-07-06T16:24:35.369Z,95988
2015-07-06T16:24:53.838Z,95985
2015-07-06T16:25:12.357Z,95985
2015-07-06T16:25:30.763Z,95989
2015-07-06T16:25:49.450Z,95983
2015-07-06T16:26:07.859Z,95981
2015-07-06T16:26:26.406Z,95990
2015-07-06T16:26:44.952Z,95978
2015-07-06T16:27:03.374Z,95982
2015-07-06T16:27:21.970Z,95982
2015-07-06T16:27:40.595Z,95982
2015-07-06T16:27:59.189Z,95987
2015-07-06T16:28:17.581Z,95976
2015-07-06T16:28:36.097Z,95976
2015-07-06T16:28:54.597Z,95981
2015-07-06T16:29:12.988Z,95973
2015-07-06T16:29:31.490Z,95987
2015-07-06T16:29:50.037Z,95984
2015-07-06T16:30:08.412Z,95973
2015-07-06T16:30:27.210Z,95979
2015-07-06T16:30:45.585Z,95973
2015-07-06T16:31:04.054Z,95982
2015-07-06T16:31:22.648Z,95979
2015-07-06T16:31:41.025Z,95976
2015-07-06T16:31:59.494Z,95979
2015-07-06T16:32:17.916Z,95976
2015-07-06T16:32:36.355Z,95981
2015-07-06T16:32:54.746Z,95976
2015-07-06T16:33:13.511Z,95976
2015-07-06T16:33:32.121Z,95973
2015-07-06T16:33:50.638Z,95976
2015-07-06T16:34:09.295Z,95982
2015-07-06T16:34:27.701Z,95979
2015-07-06T16:34:46.109Z,95979
2015-07-06T16:35:04.718Z,95985
2015-07-06T16:35:23.500Z,95982
2015-07-06T16:35:42.189Z,95976
2015-07-06T16:36:00.564Z,95979
2015-07-06T16:36:19.095Z,95966
2015-07-06T16:36:37.611Z,95979
2015-07-06T16:36:56.098Z,95979
2015-07-06T16:37:14.755Z,95982
2015-07-06T16:37:33.130Z,95974
2015-07-06T16:37:51.755Z,95982
2015-07-06T16:38:10.224Z,95980
2015-07-06T16:38:28.818Z,95966
2015-07-06T16:38:47.224Z,95985
2015-07-06T16:39:05.696Z,95966
2015-07-06T16:39:27.134Z,95982
2015-07-06T16:39:45.602Z,95976
2015-07-06T16:40:04.183Z,95974
2015-07-06T16:40:22.854Z,95973
2015-07-06T16:40:41.229Z,95973
2015-07-06T16:40:59.620Z,95970
2015-07-06T16:41:18.403Z,95973
2015-07-06T16:41:36.653Z,95973
2015-07-06T16:41:54.841Z,95982
2015-07-06T16:42:13.248Z,95973
2015-07-06T16:42:31.592Z,95975
2015-07-06T16:42:50.982Z,95973
2015-07-06T16:43:09.298Z,95972
2015-07-06T16:43:27.751Z,95975
2015-07-06T16:43:46.157Z,95973
2015-07-06T16:44:04.657Z,95972
2015-07-06T16:44:23.409Z,95975
2015-07-06T16:44:42.097Z,95972
2015-07-06T16:45:00.425Z,95975
2015-07-06T16:45:18.941Z,95985
2015-07-06T16:45:37.536Z,95980
2015-07-06T16:45:56.130Z,95967
2015-07-06T16:46:14.630Z,95972
2015-07-06T16:46:33.163Z,95967
2015-07-06T16:46:51.632Z,95975
2015-07-06T16:47:10.210Z,95974
2015-07-06T16:47:28.726Z,95977
2015-07-06T16:47:47.087Z,95966
2015-07-06T16:48:05.697Z,95973
2015-07-06T16:48:24.197Z,95976
2015-07-06T16:48:42.575Z,95973
2015-07-06T16:49:01.371Z,95980
2015-07-06T16:49:19.840Z,95971
2015-07-06T16:49:38.466Z,95976
2015-07-06T16:49:57.091Z,95970
2015-07-06T16:50:15.701Z,95982
2015-07-06T16:50:34.216Z,95966
2015-07-06T16:50:52.828Z,95988
2015-07-06T16:51:11.781Z,95979
2015-07-06T16:51:30.249Z,95976
2015-07-06T16:51:48.767Z,95963
2015-07-06T16:52:07.173Z,95971
2015-07-06T16:52:25.611Z,95980
2015-07-06T16:52:44.439Z,95974
2015-07-06T16:53:02.754Z,95979
2015-07-06T16:53:21.317Z,95976
2015-07-06T16:53:40.114Z,95966
2015-07-06T16:53:58.818Z,95976
2015-07-06T16:54:17.240Z,95979
2015-07-06T16:54:35.880Z,95966
2015-07-06T16:54:54.396Z,95982
2015-07-06T16:55:12.867Z,95973
2015-07-06T16:55:31.242Z,95982
2015-07-06T16:55:49.773Z,95974
2015-07-06T16:56:08.257Z,95974
2015-07-06T16:56:26.697Z,95966
2015-07-06T16:56:45.197Z,95973
2015-07-06T16:57:03.634Z,95966
2015-07-06T16:57:22.043Z,95966
2015-07-06T16:57:40.636Z,95973
2015-07-06T16:57:59.121Z,95974
2015-07-06T16:58:17.842Z,95974
2015-07-06T16:58:36.388Z,95976
2015-07-06T16:58:58.263Z,95979
2015-07-06T16:59:16.873Z,95973
2015-07-06T16:59:35.641Z,95973
2015-07-06T16:59:54.251Z,95975
2015-07-06T17:00:12.626Z,95970
2015-07-06T17:00:31.159Z,95961
2015-07-06T17:00:49.706Z,95967
2015-07-06T17:01:08.409Z,95964
2015-07-06T17:01:26.862Z,95962
2015-07-06T17:01:45.333Z,95959
2015-07-06T17:02:03.739Z,95962
2015-07-06T17:02:22.380Z,95962
2015-07-06T17:02:41.022Z,95967
2015-07-06T17:02:59.647Z,95956
2015-07-06T17:03:18.101Z,95962
2015-07-06T17:03:36.538Z,95972
2015-07-06T17:03:54.931Z,95965
2015-07-06T17:04:13.806Z,95966
2015-07-06T17:04:32.181Z,95960
2015-07-06T17:04:50.715Z,95965
2015-07-06T17:05:09.168Z,95973
2015-07-06T17:05:27.809Z,95970
2015-07-06T17:05:46.293Z,95970
2015-07-06T17:06:04.872Z,95973
2015-07-06T17:06:23.263Z,95965
2015-07-06T17:06:41.841Z,95964
2015-07-06T17:07:00.280Z,95964
2015-07-06T17:07:18.765Z,95964
2015-07-06T17:07:37.234Z,95964
2015-07-06T17:07:55.765Z,95967
2015-07-06T17:08:14.220Z,95964
2015-07-06T17:08:32.642Z,95967
2015-07-06T17:08:51.095Z,95961
2015-07-06T17:09:09.489Z,95967
2015-07-06T17:09:27.879Z,95958
2015-07-06T17:09:46.285Z,95971
2015-07-06T17:10:04.895Z,95974
2015-07-06T17:10:23.302Z,95963
2015-07-06T17:10:41.833Z,95974
2015-07-06T17:11:00.255Z,95960
2015-07-06T17:11:18.648Z,95957
2015-07-06T17:11:37.054Z,95966
2015-07-06T17:11:55.695Z,95960
2015-07-06T17:12:14.210Z,95963
2015-07-06T17:12:32.635Z,95955
2015-07-06T17:12:51.151Z,95963
2015-07-06T17:13:09.604Z,95971
2015-07-06T17:13:28.340Z,95960
2015-07-06T17:13:47.231Z,95971
2015-07-06T17:14:05.684Z,95960
2015-07-06T17:14:24.310Z,95963
2015-07-06T17:14:43.232Z,95960
2015-07-06T17:15:01.654Z,95963
2015-07-06T17:15:20.529Z,95958
2015-07-06T17:15:38.937Z,95955
2015-07-06T17:15:57.406Z,95955
2015-07-06T17:16:16.015Z,95964
2015-07-06T17:16:34.503Z,95958
2015-07-06T17:16:52.940Z,95964
2015-07-06T17:17:11.331Z,95958
2015-07-06T17:17:29.815Z,95958
2015-07-06T17:17:48.269Z,95962
2015-07-06T17:18:06.832Z,95948
2015-07-06T17:18:25.410Z,95956
2015-07-06T17:18:44.147Z,95953
2015-07-06T17:19:02.694Z,95956
2015-07-06T17:19:21.663Z,95953
2015-07-06T17:19:40.289Z,95951
2015-07-06T17:19:58.820Z,95956
2015-07-06T17:20:17.289Z,95953
2015-07-06T17:20:39.054Z,95948
2015-07-06T17:20:57.494Z,95956
2015-07-06T17:21:15.900Z,95953
2015-07-06T17:21:34.353Z,95953
2015-07-06T17:21:53.028Z,95959
2015-07-06T17:22:11.013Z,95959
2015-07-06T17:22:29.419Z,95961
2015-07-06T17:22:47.794Z,95962
2015-07-06T17:23:06.233Z,95956
2015-07-06T17:23:24.827Z,95956
2015-07-06T17:23:43.405Z,95957
2015-07-06T17:24:01.938Z,95950
2015-07-06T17:24:20.329Z,95953
2015-07-06T17:24:38.735Z,95951
2015-07-06T17:24:57.095Z,95954
2015-07-06T17:25:15.487Z,95957
2015-07-06T17:25:33.862Z,95959
2015-07-06T17:25:52.237Z,95959
2015-07-06T17:26:10.614Z,95948
2015-07-06T17:26:28.989Z,95956
2015-07-06T17:26:47.380Z,95950
2015-07-06T17:27:05.771Z,95956
2015-07-06T17:27:24.226Z,95967
2015-07-06T17:27:42.601Z,95950
2015-07-06T17:28:00.991Z,95953
2015-07-06T17:28:19.368Z,95945
2015-07-06T17:28:37.743Z,95956
2015-07-06T17:28:56.118Z,95959
2015-07-06T17:29:14.493Z,95956
2015-07-06T17:29:32.870Z,95959
2015-07-06T17:29:51.245Z,95962
2015-07-06T17:30:09.620Z,95973
2015-07-06T17:30:27.983Z,95956
2015-07-06T17:30:46.358Z,95954
2015-07-06T17:31:04.780Z,95945
2015-07-06T17:31:23.155Z,95957
2015-07-06T17:31:41.515Z,95957
2015-07-06T17:31:59.874Z,95957
2015-07-06T17:32:18.265Z,95958
2015-07-06T17:32:36.720Z,95952
2015-07-06T17:32:55.001Z,95957
2015-07-06T17:33:13.376Z,95963
2015-07-06T17:33:31.767Z,95954
2015-07-06T17:33:50.176Z,95951
2015-07-06T17:34:08.145Z,95957
2015-07-06T17:34:26.707Z,95962
2015-07-06T17:34:45.225Z,95954
2015-07-06T17:35:03.600Z,95951
2015-07-06T17:35:22.334Z,95965
2015-07-06T17:35:40.756Z,95957
2015-07-06T17:35:59.179Z,95945
2015-07-06T17:36:17.554Z,95954
2015-07-06T17:36:36.117Z,95954
2015-07-06T17:36:54.510Z,95960
2015-07-06T17:37:13.198Z,95957
2015-07-06T17:37:31.620Z,95959
2015-07-06T17:37:50.355Z,95957
2015-07-06T17:38:08.886Z,95954
2015-07-06T17:38:27.308Z,95959
2015-07-06T17:38:46.074Z,95950
2015-07-06T17:39:04.999Z,95953
2015-07-06T17:39:23.702Z,95956
2015-07-06T17:39:42.327Z,95963
2015-07-06T17:40:00.828Z,95959
2015-07-06T17:40:19.593Z,95959
2015-07-06T17:40:38.453Z,95948
2015-07-06T17:40:56.859Z,95956
2015-07-06T17:41:15.315Z,95962
2015-07-06T17:41:33.893Z,95953
2015-07-06T17:41:52.284Z,95962
2015-07-06T17:42:11.034Z,95956
2015-07-06T17:42:29.473Z,95951
2015-07-06T17:42:48.052Z,95946
2015-07-06T17:43:06.911Z,95949
2015-07-06T17:43:25.336Z,95949
2015-07-06T17:43:43.789Z,95949
2015-07-06T17:44:02.226Z,95949
2015-07-06T17:44:20.726Z,95955
2015-07-06T17:44:39.384Z,95952
2015-07-06T17:44:57.993Z,95941
2015-07-06T17:45:16.618Z,95944
2015-07-06T17:45:35.215Z,95953
2015-07-06T17:45:53.668Z,95953
2015-07-06T17:46:12.168Z,95941
2015-07-06T17:46:30.559Z,95953
2015-07-06T17:46:49.122Z,95958
2015-07-06T17:47:07.622Z,95953
2015-07-06T17:47:25.997Z,95959
2015-07-06T17:47:44.609Z,95950
2015-07-06T17:48:03.125Z,95963
2015-07-06T17:48:21.531Z,95943
2015-07-06T17:48:39.938Z,95954
2015-07-06T17:48:58.533Z,95954
2015-07-06T17:49:17.221Z,95957
2015-07-06T17:49:35.721Z,95963
2015-07-06T17:49:54.379Z,95951
2015-07-06T17:50:13.332Z,95957
2015-07-06T17:50:31.692Z,95951
2015-07-06T17:50:50.677Z,95954
2015-07-06T17:51:09.474Z,95957
2015-07-06T17:51:27.943Z,95963
2015-07-06T17:51:46.302Z,95952
2015-07-06T17:52:04.914Z,95952
2015-07-06T17:52:23.383Z,95953
2015-07-06T17:52:41.805Z,95952
2015-07-06T17:53:00.461Z,95952
2015-07-06T17:53:18.979Z,95949
2015-07-06T17:53:37.463Z,95950
2015-07-06T17:53:55.885Z,95952
2015-07-06T17:54:14.262Z,95946
2015-07-06T17:54:32.621Z,95950
2015-07-06T17:54:51.137Z,95953
2015-07-06T17:55:09.856Z,95953
2015-07-06T17:55:28.358Z,95947
2015-07-06T17:55:46.811Z,95953
2015-07-06T17:56:05.530Z,95944
2015-07-06T17:56:23.954Z,95938
2015-07-06T17:56:42.563Z,95950
2015-07-06T17:57:00.985Z,95950
2015-07-06T17:57:19.485Z,95947
2015-07-06T17:57:38.112Z,95950
2015-07-06T17:57:56.627Z,95953
2015-07-06T17:58:15.049Z,95947
2015-07-06T17:58:33.614Z,95952
2015-07-06T17:58:52.114Z,95950
2015-07-06T17:59:10.692Z,95950
2015-07-06T17:59:29.350Z,95935
2015-07-06T17:59:47.897Z,95949
2015-07-06T18:00:06.413Z,95949
2015-07-06T18:00:24.960Z,95949
2015-07-06T18:00:43.680Z,95952
2015-07-06T18:01:02.227Z,95952
2015-07-06T18:01:20.805Z,95949
2015-07-06T18:01:39.180Z,95949
2015-07-06T18:01:57.605Z,95946
2015-07-06T18:02:16.090Z,95957
2015-07-06T18:02:34.699Z,95957
2015-07-06T18:02:53.076Z,95946
2015-07-06T18:03:10.904Z,95955
2015-07-06T18:03:29.420Z,95947
2015-07-06T18:03:47.998Z,95958
2015-07-06T18:04:06.687Z,95953
2015-07-06T18:04:25.281Z,95950
2015-07-06T18:04:43.687Z,95956
2015-07-06T18:05:02.455Z,95950
2015-07-06T18:05:20.830Z,95953
2015-07-06T18:05:39.299Z,95956
2015-07-06T18:05:57.846Z,95961
2015-07-06T18:06:16.379Z,95956
2015-07-06T18:06:34.973Z,95945
2015-07-06T18:06:53.519Z,95953
2015-07-06T18:07:12.146Z,95947
2015-07-06T18:07:30.818Z,95953
2015-07-06T18:07:49.412Z,95950
2015-07-06T18:08:07.803Z,95956
2015-07-06T18:08:26.273Z,95953
2015-07-06T18:08:44.836Z,95954
2015-07-06T18:09:03.195Z,95957
2015-07-06T18:09:21.744Z,95951
2015-07-06T18:09:40.166Z,95949
2015-07-06T18:09:58.697Z,95949
2015-07-06T18:10:17.104Z,95958
2015-07-06T18:10:35.606Z,95952
2015-07-06T18:10:54.090Z,95952
2015-07-06T18:11:12.496Z,95952
2015-07-06T18:11:31.029Z,95952
2015-07-06T18:11:49.467Z,95957
2015-07-06T18:12:08.045Z,95951
2015-07-06T18:12:26.623Z,95948
2015-07-06T18:12:45.439Z,95948
2015-07-06T18:13:04.017Z,95945
2015-07-06T18:13:22.470Z,95951
2015-07-06T18:13:40.924Z,95940
2015-07-06T18:13:59.471Z,95948
2015-07-06T18:14:17.893Z,95954
2015-07-06T18:14:36.362Z,95954
2015-07-06T18:14:55.223Z,95952
2015-07-06T18:15:13.598Z,95943
2015-07-06T18:15:31.973Z,95949
2015-07-06T18:15:50.382Z,95949
2015-07-06T18:16:08.960Z,95946
2015-07-06T18:16:27.570Z,95943
2015-07-06T18:16:46.023Z,95949
2015-07-06T18:17:04.555Z,95953
2015-07-06T18:17:22.930Z,95949
2015-07-06T18:17:41.383Z,95955
2015-07-06T18:17:59.792Z,95955
2015-07-06T18:18:18.214Z,95955
2015-07-06T18:18:36.667Z,95956
2015-07-06T18:18:55.058Z,95959
2015-07-06T18:19:13.560Z,95950
2015-07-06T18:19:32.013Z,95950
2015-07-06T18:19:50.763Z,95953
2015-07-06T18:20:09.218Z,95953
2015-07-06T18:20:27.781Z,95953
2015-07-06T18:20:46.156Z,95944
2015-07-06T18:21:04.625Z,95952
2015-07-06T18:21:23.033Z,95951
2015-07-06T18:21:41.502Z,95955
2015-07-06T18:22:00.220Z,95953
2015-07-06T18:22:18.629Z,95943
2015-07-06T18:22:37.222Z,95954
2015-07-06T18:22:55.629Z,95946
2015-07-06T18:23:14.443Z,95954
2015-07-06T18:23:32.896Z,95949
2015-07-06T18:23:51.443Z,95958
2015-07-06T18:24:09.896Z,95950
2015-07-06T18:24:28.711Z,95950
2015-07-06T18:24:47.086Z,95951
2015-07-06T18:25:05.476Z,95956
2015-07-06T18:25:24.135Z,95951
2015-07-06T18:25:42.635Z,95959
2015-07-06T18:26:01.228Z,95954
2015-07-06T18:26:19.603Z,95948
2015-07-06T18:26:38.027Z,95951
2015-07-06T18:26:56.433Z,95948
2015-07-06T18:27:14.840Z,95953
2015-07-06T18:27:33.371Z,95948
2015-07-06T18:27:52.029Z,95947
2015-07-06T18:28:10.420Z,95947
2015-07-06T18:28:28.826Z,95947
2015-07-06T18:28:47.376Z,95950
2015-07-06T18:29:06.095Z,95947
2015-07-06T18:29:24.517Z,95947
2015-07-06T18:29:42.892Z,95950
2015-07-06T18:30:01.315Z,95948
2015-07-06T18:30:19.800Z,95954
2015-07-06T18:30:38.190Z,95951
2015-07-06T18:30:55.896Z,95957
2015-07-06T18:31:14.302Z,95951
2015-07-06T18:31:32.786Z,95951
2015-07-06T18:31:51.411Z,95940
2015-07-06T18:32:09.850Z,95940
2015-07-06T18:32:28.365Z,95957
2015-07-06T18:32:46.725Z,95946
2015-07-06T18:33:05.103Z,95938
2015-07-06T18:33:23.509Z,95946
2015-07-06T18:33:42.009Z,95952
2015-07-06T18:34:00.587Z,95952
2015-07-06T18:34:19.027Z,95955
2015-07-06T18:34:37.698Z,95949
2015-07-06T18:34:56.370Z,95952
2015-07-06T18:35:14.919Z,95955
2015-07-06T18:35:33.310Z,95946
2015-07-06T18:35:51.763Z,95949
2015-07-06T18:36:10.185Z,95959
2015-07-06T18:36:28.562Z,95942
2015-07-06T18:36:47.531Z,95953
2015-07-06T18:37:06.249Z,95950
2015-07-06T18:37:24.814Z,95957
2015-07-06T18:37:43.423Z,95954